createdAt,value
2023-01-06T00:01:07.640Z,12.63
2023-01-06T00:03:35.397Z,13.70
2023-01-06T00:06:04.101Z,12.10
2023-01-06T00:08:31.902Z,10.80
2023-01-06T00:10:59.660Z,9.97
2023-01-06T00:13:27.287Z,8.07
2023-01-06T00:15:55.575Z,8.10
2023-01-06T00:18:24.818Z,9.10
2023-01-06T00:20:53.002Z,6.23
2023-01-06T00:23:20.747Z,7.43
2023-01-06T00:25:51.959Z,6.70
2023-01-06T00:28:19.601Z,6.73
2023-01-06T00:30:47.260Z,6.17
2023-01-06T00:33:15.123Z,5.87
2023-01-06T00:35:44.164Z,6.30
2023-01-06T00:38:11.803Z,6.03
2023-01-06T00:40:39.823Z,5.97
2023-01-06T00:43:07.522Z,6.50
2023-01-06T00:45:35.131Z,6.27
2023-01-06T00:48:02.881Z,5.77
2023-01-06T00:50:30.579Z,5.63
2023-01-06T00:52:59.643Z,5.53
2023-01-06T00:55:27.336Z,5.63
2023-01-06T00:57:55.113Z,6.57
2023-01-06T01:00:22.753Z,5.70
2023-01-06T01:02:50.468Z,5.23
2023-01-06T01:05:18.301Z,5.87
2023-01-06T01:07:46.007Z,5.47
2023-01-06T01:10:15.080Z,5.10
2023-01-06T01:12:42.725Z,5.70
2023-01-06T01:15:10.869Z,5.10
2023-01-06T01:17:38.584Z,5.93
2023-01-06T01:20:06.772Z,5.80
2023-01-06T01:22:34.991Z,5.27
2023-01-06T01:25:02.721Z,5.47
2023-01-06T01:27:31.789Z,5.17
2023-01-06T01:29:59.432Z,4.47
2023-01-06T01:32:27.218Z,5.07
2023-01-06T01:34:54.957Z,4.33
2023-01-06T01:37:22.607Z,4.90
2023-01-06T01:39:50.409Z,4.37
2023-01-06T01:42:18.921Z,4.50
2023-01-06T01:45:01.668Z,4.10
2023-01-06T01:47:32.444Z,4.47
2023-01-06T01:50:01.545Z,4.37
2023-01-06T01:52:29.698Z,3.90
2023-01-06T01:54:57.536Z,3.83
2023-01-06T01:57:27.147Z,4.30
2023-01-06T01:59:55.065Z,4.00
2023-01-06T02:02:24.707Z,3.83
2023-01-06T02:04:55.403Z,4.33
2023-01-06T02:07:24.477Z,4.37
2023-01-06T02:09:56.016Z,4.13
2023-01-06T02:12:23.696Z,4.07
2023-01-06T02:14:51.370Z,2.77
2023-01-06T02:17:27.554Z,4.20
2023-01-06T02:20:10.515Z,4.37
2023-01-06T02:22:48.495Z,3.97
2023-01-06T02:25:27.202Z,3.77
2023-01-06T02:28:09.782Z,3.50
2023-01-06T02:30:42.795Z,3.50
2023-01-06T02:33:22.634Z,3.13
2023-01-06T02:36:01.389Z,3.60
2023-01-06T02:38:36.137Z,3.40
2023-01-06T02:41:11.787Z,3.30
2023-01-06T02:43:46.368Z,3.33
2023-01-06T02:46:18.536Z,3.23
2023-01-06T02:48:53.372Z,2.80
2023-01-06T02:51:24.305Z,2.70
2023-01-06T02:53:57.505Z,3.00
2023-01-06T02:56:27.964Z,2.90
2023-01-06T02:58:59.160Z,2.30
2023-01-06T03:01:29.933Z,2.70
2023-01-06T03:04:00.277Z,3.30
2023-01-06T03:06:30.828Z,2.90
2023-01-06T03:08:59.540Z,2.53
2023-01-06T03:11:28.059Z,3.20
2023-01-06T03:13:59.406Z,2.97
2023-01-06T03:16:27.189Z,3.17
2023-01-06T03:18:55.704Z,2.80
2023-01-06T03:21:26.892Z,3.10
2023-01-06T03:23:54.768Z,3.00
2023-01-06T03:26:22.461Z,3.30
2023-01-06T03:28:50.204Z,2.67
2023-01-06T03:31:22.000Z,2.60
2023-01-06T03:33:55.344Z,2.67
2023-01-06T03:36:26.759Z,3.07
2023-01-06T03:38:59.020Z,2.87
2023-01-06T03:41:51.887Z,2.90
2023-01-06T03:44:23.331Z,2.73
2023-01-06T03:46:53.572Z,2.80
2023-01-06T03:49:22.923Z,3.10
2023-01-06T03:51:55.775Z,2.60
2023-01-06T03:54:28.409Z,2.50
2023-01-06T03:56:59.776Z,1.97
2023-01-06T03:59:29.822Z,2.40
2023-01-06T04:01:58.081Z,2.60
2023-01-06T04:04:25.770Z,2.33
2023-01-06T04:06:54.854Z,2.57
2023-01-06T04:09:22.786Z,3.07
2023-01-06T04:12:08.028Z,2.37
2023-01-06T04:14:36.145Z,2.50
2023-01-06T04:17:03.763Z,2.57
2023-01-06T04:19:31.592Z,3.27
2023-01-06T04:22:01.048Z,2.40
2023-01-06T04:24:28.740Z,3.70
2023-01-06T04:26:56.478Z,3.00
2023-01-06T04:29:24.159Z,2.63
2023-01-06T04:31:51.853Z,3.67
2023-01-06T04:34:19.616Z,2.73
2023-01-06T04:36:47.247Z,2.70
2023-01-06T04:39:16.265Z,2.23
2023-01-06T04:41:43.978Z,3.13
2023-01-06T04:44:11.658Z,2.70
2023-01-06T04:46:39.296Z,2.60
2023-01-06T04:49:07.185Z,2.20
2023-01-06T04:51:35.099Z,2.20
2023-01-06T04:54:02.777Z,2.43
2023-01-06T04:56:31.859Z,2.43
2023-01-06T04:58:59.539Z,3.00
2023-01-06T05:01:27.672Z,1.90
2023-01-06T05:03:55.683Z,2.40
2023-01-06T05:06:23.598Z,2.50
2023-01-06T05:08:51.267Z,1.53
2023-01-06T05:11:19.989Z,3.03
2023-01-06T05:13:49.312Z,2.13
2023-01-06T05:16:18.171Z,1.90
2023-01-06T05:18:46.020Z,2.47
2023-01-06T05:21:14.980Z,2.33
2023-01-06T05:23:42.788Z,2.20
2023-01-06T05:26:11.057Z,1.70
2023-01-06T05:28:38.780Z,2.30
2023-01-06T05:31:07.809Z,2.03
2023-01-06T05:33:35.572Z,2.23
2023-01-06T05:36:04.212Z,2.40
2023-01-06T05:38:34.104Z,2.00
2023-01-06T05:41:01.990Z,2.60
2023-01-06T05:43:30.072Z,2.10
2023-01-06T05:45:57.705Z,2.30
2023-01-06T05:48:27.227Z,1.70
2023-01-06T05:51:01.429Z,2.80
2023-01-06T05:53:31.380Z,2.70
2023-01-06T05:56:00.404Z,2.67
2023-01-06T05:58:28.248Z,2.87
2023-01-06T06:00:56.114Z,3.77
2023-01-06T06:03:23.811Z,2.50
2023-01-06T06:05:52.854Z,3.40
2023-01-06T06:08:20.521Z,3.50
2023-01-06T06:10:48.179Z,2.33
2023-01-06T06:13:15.817Z,2.23
2023-01-06T06:15:43.552Z,2.50
2023-01-06T06:18:11.169Z,2.33
2023-01-06T06:20:39.743Z,2.47
2023-01-06T06:23:08.762Z,2.23
2023-01-06T06:25:36.476Z,2.37
2023-01-06T06:28:04.245Z,2.20
2023-01-06T06:30:31.919Z,2.33
2023-01-06T06:32:59.597Z,2.00
2023-01-06T06:35:27.261Z,1.70
2023-01-06T06:37:55.044Z,1.80
2023-01-06T06:40:24.082Z,1.83
2023-01-06T06:42:54.725Z,2.30
2023-01-06T06:45:22.348Z,2.17
2023-01-06T06:47:49.994Z,1.87
2023-01-06T06:50:17.816Z,1.40
2023-01-06T06:52:45.444Z,2.00
2023-01-06T06:55:13.143Z,1.83
2023-01-06T06:57:42.428Z,1.80
2023-01-06T07:00:10.890Z,1.50
2023-01-06T07:02:38.573Z,1.93
2023-01-06T07:05:06.658Z,1.80
2023-01-06T07:07:34.312Z,1.90
2023-01-06T07:10:01.964Z,2.17
2023-01-06T07:12:29.651Z,1.70
2023-01-06T07:14:58.675Z,1.83
2023-01-06T07:17:27.538Z,1.93
2023-01-06T07:19:55.472Z,1.97
2023-01-06T07:22:23.156Z,2.10
2023-01-06T07:24:50.832Z,2.10
2023-01-06T07:27:18.654Z,1.50
2023-01-06T07:29:46.339Z,2.27
2023-01-06T07:32:15.475Z,2.43
2023-01-06T07:34:43.180Z,2.17
2023-01-06T07:37:10.802Z,2.10
2023-01-06T07:39:38.449Z,2.30
2023-01-06T07:42:08.673Z,1.80
2023-01-06T07:44:36.302Z,1.73
2023-01-06T07:47:03.969Z,1.87
2023-01-06T07:49:33.156Z,1.67
2023-01-06T07:52:00.836Z,1.83
2023-01-06T07:54:28.514Z,1.90
2023-01-06T07:56:56.189Z,1.90
2023-01-06T07:59:23.866Z,1.57
2023-01-06T08:01:51.591Z,3.90
2023-01-06T08:04:19.457Z,2.03
2023-01-06T08:06:48.478Z,2.33
2023-01-06T08:09:16.151Z,1.80
2023-01-06T08:11:43.848Z,2.10
2023-01-06T08:14:12.097Z,2.20
2023-01-06T08:16:40.049Z,2.03
2023-01-06T08:19:07.774Z,1.90
2023-01-06T08:21:35.961Z,2.47
2023-01-06T08:24:05.679Z,2.40
2023-01-06T08:26:33.365Z,1.80
2023-01-06T08:29:01.022Z,2.37
2023-01-06T08:31:28.712Z,2.50
2023-01-06T08:33:56.466Z,1.60
2023-01-06T08:36:24.977Z,1.53
2023-01-06T08:38:52.936Z,1.67
2023-01-06T08:41:22.293Z,1.40
2023-01-06T08:43:50.077Z,1.20
2023-01-06T08:46:18.927Z,2.47
2023-01-06T08:48:47.814Z,2.23
2023-01-06T08:51:16.721Z,1.17
2023-01-06T08:53:45.040Z,1.20
2023-01-06T08:56:13.655Z,1.50
2023-01-06T08:58:42.913Z,1.20
2023-01-06T09:01:16.312Z,2.07
2023-01-06T09:03:44.128Z,1.60
2023-01-06T09:06:11.946Z,2.73
2023-01-06T09:08:39.604Z,1.60
2023-01-06T09:11:07.782Z,1.67
2023-01-06T09:13:36.118Z,1.30
2023-01-06T09:16:07.524Z,2.70
2023-01-06T09:18:35.417Z,1.07
2023-01-06T09:21:03.404Z,2.37
2023-01-06T09:23:31.164Z,1.37
2023-01-06T09:25:59.346Z,1.40
2023-01-06T09:28:27.305Z,1.20
2023-01-06T09:30:55.007Z,1.33
2023-01-06T09:33:25.110Z,1.40
2023-01-06T09:35:53.514Z,1.43
2023-01-06T09:38:21.202Z,1.47
2023-01-06T09:40:55.193Z,1.57
2023-01-06T09:43:27.883Z,1.53
2023-01-06T09:45:57.491Z,2.90
2023-01-06T09:48:29.201Z,1.57
2023-01-06T09:50:59.269Z,1.20
2023-01-06T09:53:28.088Z,1.70
2023-01-06T09:56:00.619Z,1.83
2023-01-06T09:58:29.907Z,1.43
2023-01-06T10:00:57.941Z,0.90
2023-01-06T10:03:27.855Z,2.07
2023-01-06T10:06:02.183Z,2.03
2023-01-06T10:08:34.832Z,2.00
2023-01-06T10:11:09.342Z,3.27
2023-01-06T10:13:44.004Z,3.73
2023-01-06T10:16:17.039Z,3.50
2023-01-06T10:18:50.039Z,2.43
2023-01-06T10:21:22.383Z,1.50
2023-01-06T10:24:04.393Z,1.80
2023-01-06T10:26:32.888Z,1.90
2023-01-06T10:29:02.512Z,2.63
2023-01-06T10:31:33.358Z,1.50
2023-01-06T10:34:03.143Z,4.93
2023-01-06T10:36:32.501Z,2.40
2023-01-06T10:39:01.822Z,1.83
2023-01-06T10:41:35.319Z,2.93
2023-01-06T10:44:03.097Z,2.63
2023-01-06T10:46:34.442Z,1.73
2023-01-06T10:49:03.913Z,2.23
2023-01-06T10:51:35.084Z,2.47
2023-01-06T10:54:04.831Z,2.27
2023-01-06T10:56:33.289Z,1.37
2023-01-06T10:59:06.959Z,1.07
2023-01-06T11:01:35.034Z,2.10
2023-01-06T11:04:10.199Z,1.27
2023-01-06T11:06:39.910Z,1.50
2023-01-06T11:09:08.800Z,1.67
2023-01-06T11:11:46.763Z,1.40
2023-01-06T11:14:17.433Z,1.33
2023-01-06T11:16:50.361Z,1.37
2023-01-06T11:19:23.952Z,0.93
2023-01-06T11:21:51.794Z,1.10
2023-01-06T11:24:21.115Z,1.20
2023-01-06T11:26:54.274Z,1.17
2023-01-06T11:29:26.605Z,0.83
2023-01-06T11:31:54.355Z,1.23
2023-01-06T11:34:24.865Z,1.73
2023-01-06T11:36:53.051Z,1.17
2023-01-06T11:39:25.223Z,1.40
2023-01-06T11:41:53.886Z,1.40
2023-01-06T11:44:23.808Z,1.17
2023-01-06T11:46:53.304Z,3.63
2023-01-06T11:49:24.372Z,1.20
2023-01-06T11:52:00.356Z,1.30
2023-01-06T11:54:32.302Z,1.53
2023-01-06T11:57:00.938Z,1.50
2023-01-06T11:59:29.399Z,1.73
2023-01-06T12:01:59.501Z,1.43
2023-01-06T12:04:31.424Z,1.10
2023-01-06T12:07:04.709Z,1.50
2023-01-06T12:09:34.196Z,1.50
2023-01-06T12:12:05.272Z,1.30
2023-01-06T12:14:38.194Z,1.33
2023-01-06T12:17:08.324Z,1.40
2023-01-06T12:19:38.710Z,1.60
2023-01-06T12:22:12.067Z,1.63
2023-01-06T12:24:41.765Z,1.60
2023-01-06T12:27:12.563Z,1.60
2023-01-06T12:29:40.317Z,1.40
2023-01-06T12:32:11.322Z,1.40
2023-01-06T12:34:40.853Z,2.00
2023-01-06T12:37:17.106Z,1.30
2023-01-06T12:39:50.358Z,1.20
2023-01-06T12:42:23.568Z,1.10
2023-01-06T12:44:53.144Z,1.50
2023-01-06T12:47:25.478Z,1.63
2023-01-06T12:49:55.460Z,1.10
2023-01-06T12:52:26.060Z,1.87
2023-01-06T12:54:54.723Z,1.50
2023-01-06T12:57:29.068Z,1.67
2023-01-06T13:00:04.612Z,1.40
2023-01-06T13:02:43.682Z,1.20
2023-01-06T13:05:27.447Z,1.30
2023-01-06T13:08:03.164Z,1.37
2023-01-06T13:10:33.351Z,1.20
2023-01-06T13:13:06.674Z,1.43
2023-01-06T13:15:35.433Z,1.60
2023-01-06T13:18:10.672Z,1.97
2023-01-06T13:20:41.988Z,2.27
2023-01-06T13:23:30.505Z,1.67
2023-01-06T13:26:13.148Z,1.27
2023-01-06T13:28:49.018Z,1.40
2023-01-06T13:31:30.885Z,1.17
2023-01-06T13:34:06.282Z,1.50
2023-01-06T13:36:43.725Z,1.27
2023-01-06T13:39:14.172Z,1.47
2023-01-06T13:41:44.556Z,1.60
2023-01-06T13:44:16.536Z,1.83
2023-01-06T13:46:44.253Z,1.50
2023-01-06T13:49:12.654Z,2.10
2023-01-06T13:51:42.495Z,1.80
2023-01-06T13:54:25.000Z,1.80
2023-01-06T13:57:13.948Z,1.90
2023-01-06T13:59:50.594Z,2.27
2023-01-06T14:02:33.282Z,2.00
2023-01-06T14:05:01.418Z,2.10
2023-01-06T14:07:33.186Z,2.37
2023-01-06T14:10:01.693Z,2.13
2023-01-06T14:12:29.991Z,2.50
2023-01-06T14:15:04.231Z,1.77
2023-01-06T14:17:37.648Z,2.17
2023-01-06T14:20:07.150Z,2.83
2023-01-06T14:22:34.981Z,2.47
2023-01-06T14:25:04.249Z,2.40
2023-01-06T14:27:59.151Z,2.40
2023-01-06T14:30:31.473Z,2.10
2023-01-06T14:33:08.996Z,2.13
2023-01-06T14:35:42.204Z,2.93
2023-01-06T14:38:16.297Z,2.43
2023-01-06T14:40:50.460Z,3.23
2023-01-06T14:43:29.012Z,2.60
2023-01-06T14:45:59.219Z,2.47
2023-01-06T14:48:28.738Z,2.67
2023-01-06T14:50:59.081Z,2.93
2023-01-06T14:53:28.856Z,2.00
2023-01-06T14:55:56.903Z,2.17
2023-01-06T14:58:31.283Z,2.57
2023-01-06T15:01:00.939Z,2.43
2023-01-06T15:03:29.262Z,2.63
2023-01-06T15:06:14.042Z,1.97
2023-01-06T15:08:41.814Z,2.23
2023-01-06T15:11:21.087Z,2.30
2023-01-06T15:13:48.959Z,1.87
2023-01-06T15:16:21.236Z,1.80
2023-01-06T15:18:49.206Z,3.37
2023-01-06T15:21:18.051Z,3.13
2023-01-06T15:23:47.474Z,2.13
2023-01-06T15:26:17.548Z,1.97
2023-01-06T15:28:56.300Z,2.10
2023-01-06T15:31:25.494Z,2.10
2023-01-06T15:33:53.768Z,2.30
2023-01-06T15:36:22.143Z,2.37
2023-01-06T15:38:50.489Z,1.83
2023-01-06T15:41:32.050Z,2.13
2023-01-06T15:44:00.410Z,2.00
2023-01-06T15:46:37.982Z,1.90
2023-01-06T15:49:06.304Z,2.43
2023-01-06T15:51:34.015Z,2.07
2023-01-06T15:54:01.698Z,1.90
2023-01-06T15:56:30.892Z,2.53
2023-01-06T15:58:59.266Z,2.50
2023-01-06T16:01:27.051Z,2.73
2023-01-06T16:03:56.979Z,2.47
2023-01-06T16:06:28.592Z,2.00
2023-01-06T16:09:11.179Z,2.83
2023-01-06T16:11:57.014Z,2.87
2023-01-06T16:14:29.042Z,2.27
2023-01-06T16:17:02.626Z,3.23
2023-01-06T16:19:31.825Z,2.17
2023-01-06T16:22:01.685Z,2.70
2023-01-06T16:24:30.316Z,2.33
2023-01-06T16:26:59.752Z,2.67
2023-01-06T16:29:29.323Z,2.90
2023-01-06T16:31:58.360Z,2.30
2023-01-06T16:34:28.267Z,2.30
2023-01-06T16:36:59.093Z,2.40
2023-01-06T16:39:27.185Z,2.20
2023-01-06T16:42:34.015Z,2.77
2023-01-06T16:45:03.364Z,2.27
2023-01-06T16:47:31.028Z,2.50
2023-01-06T16:49:58.678Z,2.40
2023-01-06T16:52:27.872Z,2.70
2023-01-06T16:54:56.604Z,2.70
2023-01-06T16:57:24.577Z,2.73
2023-01-06T16:59:52.296Z,2.90
2023-01-06T17:02:20.057Z,2.90
2023-01-06T17:04:47.844Z,2.27
2023-01-06T17:07:16.205Z,2.53
2023-01-06T17:09:45.221Z,2.70
2023-01-06T17:12:35.082Z,2.90
2023-01-06T17:15:03.004Z,2.60
2023-01-06T17:17:30.655Z,2.33
2023-01-06T17:19:58.340Z,3.00
2023-01-06T17:22:29.170Z,3.17
2023-01-06T17:24:59.583Z,2.33
2023-01-06T17:27:27.779Z,3.20
2023-01-06T17:29:56.291Z,2.90
2023-01-06T17:32:29.048Z,2.10
2023-01-06T17:34:58.724Z,3.87
2023-01-06T17:37:28.491Z,3.97
2023-01-06T17:39:56.989Z,3.53
2023-01-06T17:42:32.424Z,3.03
2023-01-06T17:45:00.768Z,2.23
2023-01-06T17:47:29.558Z,2.97
2023-01-06T17:49:57.948Z,2.90
2023-01-06T17:52:30.665Z,2.93
2023-01-06T17:55:30.864Z,3.37
2023-01-06T17:58:00.203Z,2.37
2023-01-06T18:00:29.621Z,3.20
2023-01-06T18:03:00.308Z,3.30
2023-01-06T18:05:57.625Z,4.00
2023-01-06T18:08:25.800Z,5.97
2023-01-06T18:10:55.107Z,5.07
2023-01-06T18:13:25.125Z,2.73
2023-01-06T18:15:53.608Z,2.97
2023-01-06T18:18:23.646Z,2.73
2023-01-06T18:20:54.022Z,2.83
2023-01-06T18:23:23.731Z,6.87
2023-01-06T18:25:52.780Z,4.33
2023-01-06T18:28:20.474Z,3.50
2023-01-06T18:30:51.995Z,3.97
2023-01-06T18:33:19.612Z,3.40
2023-01-06T18:35:50.816Z,2.67
2023-01-06T18:38:18.474Z,4.20
2023-01-06T18:40:46.663Z,3.03
2023-01-06T18:43:21.517Z,3.20
2023-01-06T18:45:51.864Z,3.80
2023-01-06T18:48:27.123Z,3.57
2023-01-06T18:50:55.571Z,3.47
2023-01-06T18:53:26.432Z,2.87
2023-01-06T18:55:55.301Z,3.20
2023-01-06T18:58:29.967Z,2.30
2023-01-06T19:00:59.901Z,2.77
2023-01-06T19:03:37.181Z,3.00
2023-01-06T19:06:22.584Z,3.03
2023-01-06T19:08:51.146Z,2.53
2023-01-06T19:11:20.183Z,2.70
2023-01-06T19:13:48.087Z,2.60
2023-01-06T19:16:27.497Z,3.00
2023-01-06T19:18:56.385Z,2.70
2023-01-06T19:21:24.487Z,3.30
2023-01-06T19:23:52.152Z,2.80
2023-01-06T19:26:30.333Z,2.73
2023-01-06T19:29:00.155Z,3.03
2023-01-06T19:31:30.747Z,3.30
2023-01-06T19:33:59.962Z,3.00
2023-01-06T19:36:40.914Z,2.53
2023-01-06T19:39:17.387Z,3.00
2023-01-06T19:41:45.290Z,2.57
2023-01-06T19:44:13.925Z,2.60
2023-01-06T19:46:43.843Z,2.00
2023-01-06T19:49:18.719Z,2.50
2023-01-06T19:51:46.656Z,2.73
2023-01-06T19:54:20.032Z,2.70
2023-01-06T19:56:47.998Z,3.20
2023-01-06T19:59:16.824Z,4.70
2023-01-06T20:01:46.007Z,5.60
2023-01-06T20:04:18.031Z,7.43
2023-01-06T20:06:45.778Z,6.40
2023-01-06T20:09:13.478Z,6.40
2023-01-06T20:11:41.948Z,6.70
2023-01-06T20:14:09.685Z,6.90
2023-01-06T20:16:37.377Z,7.43
2023-01-06T20:19:06.441Z,6.30
2023-01-06T20:21:34.104Z,7.73
2023-01-06T20:24:01.855Z,6.50
2023-01-06T20:26:29.528Z,6.80
2023-01-06T20:28:57.332Z,6.03
2023-01-06T20:31:25.023Z,6.97
2023-01-06T20:33:52.681Z,6.07
2023-01-06T20:36:21.742Z,6.43
2023-01-06T20:38:49.356Z,7.13
2023-01-06T20:41:17.039Z,8.03
2023-01-06T20:43:44.801Z,8.20
2023-01-06T20:46:13.509Z,8.50
2023-01-06T20:48:41.218Z,8.93
2023-01-06T20:51:09.023Z,10.23
2023-01-06T20:53:38.084Z,10.77
2023-01-06T20:56:06.076Z,14.63
2023-01-06T20:58:33.776Z,15.47
2023-01-06T21:01:01.540Z,15.53
2023-01-06T21:03:29.279Z,14.40
2023-01-06T21:05:57.014Z,12.67
2023-01-06T21:08:24.708Z,13.20
2023-01-06T21:10:53.723Z,12.37
2023-01-06T21:13:23.985Z,12.97
2023-01-06T21:15:51.901Z,12.67
2023-01-06T21:18:19.563Z,12.77
2023-01-06T21:20:49.444Z,13.27
2023-01-06T21:23:17.183Z,12.67
2023-01-06T21:25:44.911Z,11.57
2023-01-06T21:28:14.039Z,13.17
2023-01-06T21:30:41.747Z,13.93
2023-01-06T21:33:09.443Z,14.57
2023-01-06T21:35:37.200Z,16.30
2023-01-06T21:38:05.445Z,16.97
2023-01-06T21:40:33.121Z,16.07
2023-01-06T21:43:08.723Z,17.93
2023-01-06T21:45:38.056Z,13.13
2023-01-06T21:48:06.293Z,16.23
2023-01-06T21:50:36.198Z,17.30
2023-01-06T21:53:03.912Z,16.43
2023-01-06T21:55:31.708Z,14.10
2023-01-06T21:57:59.423Z,14.03
2023-01-06T22:00:27.093Z,12.53
2023-01-06T22:02:56.152Z,17.43
2023-01-06T22:05:23.912Z,13.27
2023-01-06T22:07:53.028Z,13.37
2023-01-06T22:10:21.741Z,14.63
2023-01-06T22:12:50.660Z,13.33
2023-01-06T22:15:18.484Z,14.40
2023-01-06T22:17:46.124Z,12.90
2023-01-06T22:20:15.295Z,14.60
2023-01-06T22:22:43.134Z,17.40
2023-01-06T22:25:10.969Z,12.60
2023-01-06T22:27:38.680Z,12.30
2023-01-06T22:30:06.771Z,12.37
2023-01-06T22:32:42.395Z,11.90
2023-01-06T22:35:10.735Z,12.37
2023-01-06T22:37:39.791Z,12.93
2023-01-06T22:40:08.487Z,13.73
2023-01-06T22:42:36.232Z,12.20
2023-01-06T22:45:04.556Z,10.97
2023-01-06T22:47:32.642Z,11.63
2023-01-06T22:50:00.632Z,12.40
2023-01-06T22:52:28.361Z,12.73
2023-01-06T22:54:57.516Z,14.07
2023-01-06T22:57:25.363Z,11.47
2023-01-06T22:59:53.015Z,14.13
2023-01-06T23:02:21.009Z,13.63
2023-01-06T23:04:48.727Z,10.90
2023-01-06T23:07:16.385Z,13.00
2023-01-06T23:09:44.266Z,12.43
2023-01-06T23:12:13.271Z,14.17
2023-01-06T23:14:40.942Z,13.47
2023-01-06T23:17:08.603Z,13.80
2023-01-06T23:19:36.262Z,13.20
2023-01-06T23:22:04.443Z,14.13
2023-01-06T23:24:32.372Z,12.50
2023-01-06T23:27:00.896Z,13.67
2023-01-06T23:29:30.067Z,11.50
2023-01-06T23:31:57.740Z,12.67
2023-01-06T23:34:25.362Z,11.13
2023-01-06T23:36:53.033Z,9.77
2023-01-06T23:39:20.793Z,10.97
2023-01-06T23:41:48.732Z,14.33
2023-01-06T23:44:17.921Z,12.27
2023-01-06T23:46:47.180Z,12.03
2023-01-06T23:49:16.473Z,13.93
2023-01-06T23:51:44.935Z,12.93
2023-01-06T23:54:12.884Z,12.53
2023-01-06T23:56:40.528Z,12.27
2023-01-06T23:59:11.902Z,13.60
